Time;durP1;ratioP1;P1;durP2;ratioP2;P2;SDS_P1;SDS_P2;PMS_P1;PMS_P2;Temp;Humidity;BMP_temperature;BMP_pressure;BME280_temperature;BME280_humidity;BME280_pressure;Samples;Min_cycle;Max_cycle;Signal;HPM_P1;HPM_P2
2024/03/22 00:00:20;;;;;;;;;;;22.20;42.00;;;;;;3027677;19;4763;-29
2024/03/22 00:01:21;;;;;;;;;;;22.20;42.00;;;;;;3049270;19;4725;-32
2024/03/22 00:02:21;;;;;;;;;;;22.40;42.20;;;;;;3048471;19;4758;-31
2024/03/22 00:03:22;;;;;;;;;;;22.20;42.20;;;;;;3027493;19;5238;-33
2024/03/22 00:04:22;;;;;;;;;;;22.20;42.40;;;;;;3047686;19;4783;-35
2024/03/22 00:05:23;;;;;;;;;;;22.20;42.10;;;;;;3028212;19;4708;-34
2024/03/22 00:06:24;;;;;;;;;;;22.20;42.10;;;;;;3049608;19;4716;-33
2024/03/22 00:07:24;;;;;;;;;;;22.20;42.10;;;;;;3049782;19;4722;-32
2024/03/22 00:08:25;;;;;;;;;;;22.20;42.10;;;;;;3028696;19;4603;-31
2024/03/22 00:09:26;;;;;;;;;;;22.20;42.10;;;;;;3048180;19;4737;-33
2024/03/22 00:10:26;;;;;;;;;;;22.20;42.20;;;;;;3049816;19;4711;-31
2024/03/22 00:11:27;;;;;;;;;;;22.20;42.20;;;;;;3026453;19;4713;-33
2024/03/22 00:12:28;;;;;;;;;;;22.20;42.10;;;;;;3049853;19;4758;-29
2024/03/22 00:13:28;;;;;;;;;;;22.20;42.20;;;;;;3026532;19;4782;-33
2024/03/22 00:14:29;;;;;;;;;;;22.20;42.20;;;;;;3047821;19;4891;-32
2024/03/22 00:15:30;;;;;;;;;;;22.20;42.10;;;;;;3048474;19;4699;-34
2024/03/22 00:16:30;;;;;;;;;;;22.20;42.10;;;;;;3027496;19;4610;-34
2024/03/22 00:17:31;;;;;;;;;;;22.20;42.10;;;;;;3049300;19;4731;-33
2024/03/22 00:18:31;;;;;;;;;;;22.20;42.10;;;;;;3028273;19;4705;-33
2024/03/22 00:19:32;;;;;;;;;;;22.20;42.10;;;;;;3048181;19;4706;-32
2024/03/22 00:20:33;;;;;;;;;;;22.20;42.10;;;;;;3049505;19;4761;-33
2024/03/22 00:21:33;;;;;;;;;;;22.20;42.00;;;;;;3025099;19;4899;-33
2024/03/22 00:22:34;;;;;;;;;;;22.10;42.10;;;;;;3049140;19;4815;-30
2024/03/22 00:23:35;;;;;;;;;;;22.20;42.00;;;;;;3046801;19;4741;-29
2024/03/22 00:24:36;;;;;;;;;;;22.20;42.00;;;;;;3025508;19;4585;-32
2024/03/22 00:25:37;;;;;;;;;;;22.10;42.00;;;;;;3048857;19;4724;-32
2024/03/22 00:26:37;;;;;;;;;;;22.10;41.90;;;;;;3026440;19;4944;-31
2024/03/22 00:27:38;;;;;;;;;;;22.20;42.00;;;;;;3049247;19;4712;-33
2024/03/22 00:28:38;;;;;;;;;;;22.20;42.00;;;;;;3048589;19;4738;-31
2024/03/22 00:29:39;;;;;;;;;;;22.10;41.90;;;;;;3028257;19;4718;-31
2024/03/22 00:30:40;;;;;;;;;;;22.50;42.10;;;;;;3049190;19;4900;-34
2024/03/22 00:31:40;;;;;;;;;;;22.10;42.00;;;;;;3049357;19;4720;-35
2024/03/22 00:32:44;;;;;;;;;;;22.10;42.00;;;;;;3027513;19;4759;-34
2024/03/22 00:33:44;;;;;;;;;;;22.10;42.00;;;;;;3048848;19;4719;-33
2024/03/22 00:34:45;;;;;;;;;;;22.10;42.00;;;;;;3029602;19;4742;-35
2024/03/22 00:35:46;;;;;;;;;;;22.10;42.10;;;;;;3052016;19;4723;-32
2024/03/22 00:36:46;;;;;;;;;;;22.10;42.00;;;;;;3051745;19;4712;-34
2024/03/22 00:37:47;;;;;;;;;;;22.10;42.10;;;;;;3031201;19;4730;-32
2024/03/22 00:38:48;;;;;;;;;;;22.10;42.10;;;;;;3050986;19;4709;-31
2024/03/22 00:39:48;;;;;;;;;;;22.20;42.10;;;;;;3052757;19;4680;-35
2024/03/22 00:40:49;;;;;;;;;;;22.10;42.10;;;;;;3030895;19;4624;-30
2024/03/22 00:41:49;;;;;;;;;;;22.00;42.00;;;;;;3051758;19;4698;-30
2024/03/22 00:42:50;;;;;;;;;;;22.10;42.10;;;;;;3029879;19;4702;-32
2024/03/22 00:43:51;;;;;;;;;;;22.00;42.10;;;;;;3050934;19;4906;-30
2024/03/22 00:44:52;;;;;;;;;;;22.00;42.10;;;;;;3051496;19;4875;-31
2024/03/22 00:45:52;;;;;;;;;;;22.00;42.10;;;;;;3030701;19;4621;-33
2024/03/22 00:46:53;;;;;;;;;;;22.00;42.00;;;;;;3051231;19;4692;-34
2024/03/22 00:47:53;;;;;;;;;;;22.00;42.10;;;;;;3030144;19;4720;-31
2024/03/22 00:48:54;;;;;;;;;;;22.00;42.10;;;;;;3050621;19;4725;-35
2024/03/22 00:49:55;;;;;;;;;;;22.00;42.00;;;;;;3051750;19;4642;-30
2024/03/22 00:50:55;;;;;;;;;;;22.00;42.10;;;;;;3031649;19;4734;-32
2024/03/22 00:51:56;;;;;;;;;;;22.00;42.00;;;;;;3051312;19;4670;-32
2024/03/22 00:52:57;;;;;;;;;;;22.00;42.10;;;;;;3051046;19;4833;-24
2024/03/22 00:53:57;;;;;;;;;;;22.00;42.00;;;;;;3029542;19;4704;-24
2024/03/22 00:54:58;;;;;;;;;;;22.00;42.10;;;;;;3051661;19;4830;-24
2024/03/22 00:55:59;;;;;;;;;;;22.00;42.10;;;;;;3029688;19;4724;-24
2024/03/22 00:56:59;;;;;;;;;;;22.00;42.10;;;;;;3051058;19;4743;-24
2024/03/22 00:58:00;;;;;;;;;;;22.00;42.10;;;;;;3052217;19;4817;-24
2024/03/22 00:59:01;;;;;;;;;;;22.00;42.00;;;;;;3028278;19;4881;-25
2024/03/22 01:00:02;;;;;;;;;;;22.00;42.00;;;;;;3051772;19;4768;-24
2024/03/22 01:01:03;;;;;;;;;;;22.00;42.00;;;;;;3051747;19;4598;-26
2024/03/22 01:02:04;;;;;;;;;;;21.90;41.90;;;;;;3029731;19;4812;-28
2024/03/22 01:03:05;;;;;;;;;;;22.00;42.00;;;;;;3051963;19;4637;-26
2024/03/22 01:04:09;;;;;;;;;;;21.90;41.90;;;;;;3029578;19;4790;-24
2024/03/22 01:05:09;;;;;;;;;;;22.00;41.90;;;;;;3051915;19;4661;-24
2024/03/22 01:06:10;;;;;;;;;;;22.00;41.90;;;;;;3051981;19;4669;-25
2024/03/22 01:07:10;;;;;;;;;;;22.00;41.80;;;;;;3030809;19;4318;-25
2024/03/22 01:08:11;;;;;;;;;;;22.00;41.90;;;;;;3051846;19;4832;-25
2024/03/22 01:09:12;;;;;;;;;;;21.90;41.80;;;;;;3030561;19;4718;-24
2024/03/22 01:10:12;;;;;;;;;;;22.00;41.80;;;;;;3051113;19;4702;-26
2024/03/22 01:11:13;;;;;;;;;;;21.90;41.70;;;;;;3052370;19;4699;-25
2024/03/22 01:12:14;;;;;;;;;;;21.90;41.70;;;;;;3029997;19;4493;-26
2024/03/22 01:13:14;;;;;;;;;;;21.90;41.70;;;;;;3050607;19;4665;-24
2024/03/22 01:14:15;;;;;;;;;;;21.90;41.70;;;;;;3051188;19;4724;-25
2024/03/22 01:15:16;;;;;;;;;;;21.90;41.70;;;;;;3028095;19;4617;-24
2024/03/22 01:16:16;;;;;;;;;;;21.90;41.80;;;;;;3050094;19;4681;-26
2024/03/22 01:17:17;;;;;;;;;;;21.90;41.80;;;;;;3030351;19;4697;-24
2024/03/22 01:18:18;;;;;;;;;;;21.80;41.80;;;;;;3051217;19;4740;-26
2024/03/22 01:19:18;;;;;;;;;;;21.90;41.80;;;;;;3052028;19;4861;-24
2024/03/22 01:20:19;;;;;;;;;;;21.80;41.80;;;;;;3028975;19;4798;-26
2024/03/22 01:21:24;;;;;;;;;;;21.80;41.80;;;;;;3050100;19;4730;-25
2024/03/22 01:22:25;;;;;;;;;;;21.90;41.80;;;;;;3051562;19;4738;-24
2024/03/22 01:23:26;;;;;;;;;;;21.80;41.80;;;;;;3029018;19;4724;-25
2024/03/22 01:24:26;;;;;;;;;;;21.80;41.70;;;;;;3050008;19;5312;-26
2024/03/22 01:25:27;;;;;;;;;;;21.80;41.70;;;;;;3029843;19;4752;-24
2024/03/22 01:26:28;;;;;;;;;;;21.80;41.70;;;;;;3052075;19;4774;-27
2024/03/22 01:27:29;;;;;;;;;;;21.80;41.80;;;;;;3051817;19;4742;-24
2024/03/22 01:28:29;;;;;;;;;;;21.80;41.70;;;;;;3030586;19;4655;-26
2024/03/22 01:29:31;;;;;;;;;;;21.80;41.70;;;;;;3051346;19;4921;-25
2024/03/22 01:30:33;;;;;;;;;;;21.80;41.70;;;;;;3029612;19;4869;-24
2024/03/22 01:31:34;;;;;;;;;;;21.80;41.70;;;;;;3051096;19;4756;-24
2024/03/22 01:32:36;;;;;;;;;;;21.80;41.80;;;;;;3052713;19;4666;-24
2024/03/22 01:33:36;;;;;;;;;;;21.80;41.70;;;;;;3030196;19;4746;-25
2024/03/22 01:34:37;;;;;;;;;;;21.80;41.70;;;;;;3052911;19;4778;-24
2024/03/22 01:35:38;;;;;;;;;;;21.80;41.90;;;;;;3052473;19;4712;-27
2024/03/22 01:36:38;;;;;;;;;;;21.80;41.70;;;;;;3030847;19;4573;-24
2024/03/22 01:37:39;;;;;;;;;;;21.80;42.40;;;;;;3050722;19;4694;-27
2024/03/22 01:38:39;;;;;;;;;;;22.60;42.20;;;;;;3028384;19;4752;-26
2024/03/22 01:39:40;;;;;;;;;;;21.80;41.80;;;;;;3050845;19;4733;-24
2024/03/22 01:40:41;;;;;;;;;;;21.80;41.80;;;;;;3050817;19;4755;-24
2024/03/22 01:41:41;;;;;;;;;;;21.70;41.60;;;;;;3029640;19;4733;-26
2024/03/22 01:42:42;;;;;;;;;;;21.70;41.60;;;;;;3051416;19;5049;-25
2024/03/22 01:43:43;;;;;;;;;;;21.70;41.60;;;;;;3050590;19;4722;-26
2024/03/22 01:44:43;;;;;;;;;;;21.80;41.70;;;;;;3028959;19;4778;-24
2024/03/22 01:45:44;;;;;;;;;;;21.70;41.60;;;;;;3051584;19;4772;-25
2024/03/22 01:46:45;;;;;;;;;;;21.80;41.80;;;;;;3029696;19;4782;-26
2024/03/22 01:47:46;;;;;;;;;;;21.70;41.70;;;;;;3050950;19;4689;-24
2024/03/22 01:48:47;;;;;;;;;;;21.70;41.60;;;;;;3049134;19;4723;-25
2024/03/22 01:49:48;;;;;;;;;;;21.80;41.70;;;;;;3027379;19;4754;-24
2024/03/22 01:50:48;;;;;;;;;;;21.80;41.60;;;;;;3050572;19;4843;-24
2024/03/22 01:51:49;;;;;;;;;;;21.80;41.60;;;;;;3051143;19;5309;-27
2024/03/22 01:52:50;;;;;;;;;;;21.80;41.60;;;;;;3029858;19;18480;-26
2024/03/22 01:53:50;;;;;;;;;;;21.80;41.60;;;;;;3050295;19;4735;-25
2024/03/22 01:54:51;;;;;;;;;;;21.80;41.60;;;;;;3027929;19;4719;-26
2024/03/22 01:55:51;;;;;;;;;;;21.80;41.60;;;;;;3051677;19;4780;-26
2024/03/22 01:56:52;;;;;;;;;;;21.70;41.60;;;;;;3052119;19;4748;-26
2024/03/22 01:57:53;;;;;;;;;;;21.70;41.60;;;;;;3030367;19;4743;-25
2024/03/22 01:58:54;;;;;;;;;;;21.70;41.60;;;;;;3051139;19;4752;-26
2024/03/22 01:59:55;;;;;;;;;;;21.70;41.70;;;;;;3028943;19;4699;-25
2024/03/22 02:00:56;;;;;;;;;;;21.70;41.60;;;;;;3049383;19;4785;-23
2024/03/22 02:01:56;;;;;;;;;;;21.70;41.70;;;;;;3051203;19;4677;-25
2024/03/22 02:02:57;;;;;;;;;;;21.70;41.60;;;;;;3030255;19;4803;-25
2024/03/22 02:03:58;;;;;;;;;;;21.70;41.70;;;;;;3051506;19;4810;-25
2024/03/22 02:04:58;;;;;;;;;;;21.70;41.70;;;;;;3050441;19;4799;-24
2024/03/22 02:05:59;;;;;;;;;;;21.70;41.70;;;;;;3028943;19;4646;-26
2024/03/22 02:07:00;;;;;;;;;;;21.70;41.70;;;;;;3051313;19;4692;-25
2024/03/22 02:08:00;;;;;;;;;;;21.70;41.70;;;;;;3027635;19;4726;-27
2024/03/22 02:09:01;;;;;;;;;;;21.70;41.70;;;;;;3049786;19;4761;-25
2024/03/22 02:10:02;;;;;;;;;;;21.70;41.70;;;;;;3049999;19;4752;-24
2024/03/22 02:11:02;;;;;;;;;;;21.60;41.70;;;;;;3029511;19;4653;-25
2024/03/22 02:12:03;;;;;;;;;;;21.60;41.80;;;;;;3050749;19;4820;-27
2024/03/22 02:13:04;;;;;;;;;;;21.60;41.70;;;;;;3050109;19;4665;-25
2024/03/22 02:14:04;;;;;;;;;;;21.60;41.60;;;;;;3028840;19;4715;-25
2024/03/22 02:15:06;;;;;;;;;;;21.60;41.70;;;;;;3049455;19;4722;-25
2024/03/22 02:16:07;;;;;;;;;;;21.60;41.70;;;;;;3029365;19;4633;-26
2024/03/22 02:17:08;;;;;;;;;;;21.60;41.80;;;;;;3050422;19;4698;-24
2024/03/22 02:18:09;;;;;;;;;;;21.60;41.80;;;;;;3050181;19;4666;-24
2024/03/22 02:19:10;;;;;;;;;;;21.60;41.70;;;;;;3028221;19;4629;-25
2024/03/22 02:20:11;;;;;;;;;;;21.60;41.80;;;;;;3049908;19;4763;-25
2024/03/22 02:21:12;;;;;;;;;;;21.60;41.70;;;;;;3029139;19;4723;-24
2024/03/22 02:22:13;;;;;;;;;;;21.60;41.70;;;;;;3050154;19;4734;-25
2024/03/22 02:23:13;;;;;;;;;;;21.60;41.80;;;;;;3050008;19;4779;-25
2024/03/22 02:24:14;;;;;;;;;;;21.60;41.80;;;;;;3028303;19;4576;-27
2024/03/22 02:25:14;;;;;;;;;;;21.60;41.90;;;;;;3048481;19;4801;-25
2024/03/22 02:26:15;;;;;;;;;;;21.60;41.80;;;;;;3048963;19;4668;-26
2024/03/22 02:27:16;;;;;;;;;;;21.60;41.70;;;;;;3028664;19;4812;-25
2024/03/22 02:28:16;;;;;;;;;;;21.60;41.70;;;;;;3050843;19;4728;-25
2024/03/22 02:29:17;;;;;;;;;;;21.50;41.60;;;;;;3028737;19;4715;-26
2024/03/22 02:30:18;;;;;;;;;;;21.60;41.70;;;;;;3051016;19;4687;-24
2024/03/22 02:31:20;;;;;;;;;;;21.60;41.70;;;;;;3051421;19;4718;-25
2024/03/22 02:32:20;;;;;;;;;;;21.60;41.70;;;;;;3029058;19;4680;-26
2024/03/22 02:33:21;;;;;;;;;;;21.50;41.60;;;;;;3051114;19;4703;-24
2024/03/22 02:34:22;;;;;;;;;;;21.60;41.70;;;;;;3050742;19;4713;-24
2024/03/22 02:35:22;;;;;;;;;;;21.60;41.70;;;;;;3029640;19;4557;-26
2024/03/22 02:36:23;;;;;;;;;;;21.50;41.70;;;;;;3049126;19;4683;-24
2024/03/22 02:37:23;;;;;;;;;;;21.50;41.60;;;;;;3028604;19;4715;-26
2024/03/22 02:38:24;;;;;;;;;;;21.50;41.60;;;;;;3050806;19;4697;-25
2024/03/22 02:39:25;;;;;;;;;;;21.50;41.60;;;;;;3049495;19;4774;-24
2024/03/22 02:40:25;;;;;;;;;;;21.50;41.60;;;;;;3029425;19;4601;-24
2024/03/22 02:41:26;;;;;;;;;;;21.50;41.70;;;;;;3049781;19;5191;-24
2024/03/22 02:42:27;;;;;;;;;;;21.40;41.60;;;;;;3049038;19;4859;-26
2024/03/22 02:43:27;;;;;;;;;;;21.50;41.70;;;;;;3027894;19;4570;-26
2024/03/22 02:44:28;;;;;;;;;;;21.50;41.70;;;;;;3048628;19;4769;-27
2024/03/22 02:45:30;;;;;;;;;;;21.50;41.70;;;;;;3028270;19;4682;-25
2024/03/22 02:46:32;;;;;;;;;;;21.50;41.70;;;;;;3050356;19;4698;-24
2024/03/22 02:47:32;;;;;;;;;;;21.50;41.60;;;;;;3050149;19;4737;-25
2024/03/22 02:48:34;;;;;;;;;;;21.40;41.60;;;;;;3029477;19;4548;-26
2024/03/22 02:49:35;;;;;;;;;;;21.40;41.70;;;;;;3049936;19;4695;-24
2024/03/22 02:50:37;;;;;;;;;;;21.40;41.60;;;;;;3028235;19;4732;-24
2024/03/22 02:51:39;;;;;;;;;;;21.40;41.70;;;;;;3050866;19;4726;-24
2024/03/22 02:52:39;;;;;;;;;;;21.40;41.70;;;;;;3050661;19;4706;-25
2024/03/22 02:53:40;;;;;;;;;;;21.40;41.60;;;;;;3029566;19;4742;-26
2024/03/22 02:54:41;;;;;;;;;;;21.60;41.80;;;;;;3049546;19;4878;-24
2024/03/22 02:55:42;;;;;;;;;;;21.40;41.60;;;;;;3051928;19;4709;-26
2024/03/22 02:56:42;;;;;;;;;;;21.40;41.60;;;;;;3027742;19;4616;-26
2024/03/22 02:57:43;;;;;;;;;;;21.40;41.50;;;;;;3049552;19;4669;-25
2024/03/22 02:58:44;;;;;;;;;;;21.40;41.60;;;;;;3028023;19;4699;-24
2024/03/22 02:59:44;;;;;;;;;;;21.40;41.60;;;;;;3049752;19;4751;-26
2024/03/22 03:00:45;;;;;;;;;;;21.40;41.60;;;;;;3047729;19;4686;-24
2024/03/22 03:01:46;;;;;;;;;;;21.40;42.30;;;;;;3028023;19;4695;-24
2024/03/22 03:02:46;;;;;;;;;;;21.40;41.70;;;;;;3049504;19;4730;-26
2024/03/22 03:03:47;;;;;;;;;;;21.40;41.70;;;;;;3051350;19;4710;-24
2024/03/22 03:04:47;;;;;;;;;;;21.30;41.70;;;;;;3026624;19;4700;-24
2024/03/22 03:05:48;;;;;;;;;;;21.30;41.60;;;;;;3050086;19;4716;-25
2024/03/22 03:06:49;;;;;;;;;;;21.30;41.70;;;;;;3028947;19;4669;-25
2024/03/22 03:07:50;;;;;;;;;;;21.30;41.60;;;;;;3051063;19;4731;-26
2024/03/22 03:08:51;;;;;;;;;;;21.30;41.60;;;;;;3049258;19;4727;-27
2024/03/22 03:09:51;;;;;;;;;;;21.30;41.60;;;;;;3029499;19;4702;-24
2024/03/22 03:10:52;;;;;;;;;;;21.30;41.60;;;;;;3049968;19;4853;-24
2024/03/22 03:11:53;;;;;;;;;;;21.30;41.60;;;;;;3029149;19;4647;-26
2024/03/22 03:12:56;;;;;;;;;;;21.30;41.60;;;;;;3046788;19;4824;-25
2024/03/22 03:13:57;;;;;;;;;;;21.30;41.60;;;;;;3048344;19;4880;-26
2024/03/22 03:14:58;;;;;;;;;;;21.30;41.60;;;;;;3026923;19;4665;-25
2024/03/22 03:15:58;;;;;;;;;;;21.30;41.60;;;;;;3048569;19;5131;-26
2024/03/22 03:16:59;;;;;;;;;;;21.30;41.50;;;;;;3047582;19;4651;-25
2024/03/22 03:17:59;;;;;;;;;;;21.30;41.60;;;;;;3027398;19;4681;-26
2024/03/22 03:19:00;;;;;;;;;;;21.30;41.50;;;;;;3050228;19;4808;-26
2024/03/22 03:20:01;;;;;;;;;;;21.30;41.60;;;;;;3026529;19;4835;-26
2024/03/22 03:21:02;;;;;;;;;;;21.30;41.50;;;;;;3049532;19;4714;-26
2024/03/22 03:22:02;;;;;;;;;;;21.30;41.60;;;;;;3050614;19;4855;-26
2024/03/22 03:23:03;;;;;;;;;;;21.30;41.60;;;;;;3027850;19;4624;-27
2024/03/22 03:24:04;;;;;;;;;;;21.30;41.50;;;;;;3049910;19;4740;-25
2024/03/22 03:25:05;;;;;;;;;;;21.30;41.60;;;;;;3049895;19;4653;-24
2024/03/22 03:26:06;;;;;;;;;;;21.20;41.50;;;;;;3028259;19;4628;-24
2024/03/22 03:27:07;;;;;;;;;;;21.20;41.50;;;;;;3049386;19;4716;-25
2024/03/22 03:28:07;;;;;;;;;;;21.20;41.70;;;;;;3026774;19;4786;-25
2024/03/22 03:29:08;;;;;;;;;;;21.20;41.50;;;;;;3049712;19;4731;-24
2024/03/22 03:30:09;;;;;;;;;;;21.20;41.50;;;;;;3049456;19;4730;-26
2024/03/22 03:31:10;;;;;;;;;;;21.20;41.50;;;;;;3027080;19;4609;-24
2024/03/22 03:32:10;;;;;;;;;;;21.20;41.50;;;;;;3048492;19;4863;-24
2024/03/22 03:33:11;;;;;;;;;;;21.20;41.40;;;;;;3030088;19;4706;-25
2024/03/22 03:34:12;;;;;;;;;;;21.20;41.50;;;;;;3050702;19;1384;-24
2024/03/22 03:35:13;;;;;;;;;;;21.20;41.60;;;;;;3048665;19;4732;-27
2024/03/22 03:36:13;;;;;;;;;;;21.20;41.50;;;;;;3027549;19;4604;-27
2024/03/22 03:37:14;;;;;;;;;;;21.00;41.50;;;;;;3049467;19;4663;-24
2024/03/22 03:38:15;;;;;;;;;;;21.20;41.50;;;;;;3049541;19;4715;-24
2024/03/22 03:39:15;;;;;;;;;;;21.20;41.60;;;;;;3028095;19;5139;-23
2024/03/22 03:40:16;;;;;;;;;;;21.20;41.60;;;;;;3049251;19;4727;-23
2024/03/22 03:41:17;;;;;;;;;;;21.20;41.50;;;;;;3027774;19;4776;-24
2024/03/22 03:42:17;;;;;;;;;;;21.10;41.60;;;;;;3049988;19;4749;-24
2024/03/22 03:43:18;;;;;;;;;;;21.20;41.60;;;;;;3049936;19;4703;-25
2024/03/22 03:44:18;;;;;;;;;;;21.20;41.50;;;;;;3027399;19;4656;-24
2024/03/22 03:45:19;;;;;;;;;;;21.20;41.50;;;;;;3049993;19;4756;-24
2024/03/22 03:46:20;;;;;;;;;;;21.20;41.60;;;;;;3050204;19;4697;-25
2024/03/22 03:47:20;;;;;;;;;;;21.30;41.60;;;;;;3027286;19;4812;-25
2024/03/22 03:48:21;;;;;;;;;;;21.30;41.50;;;;;;3049741;19;4714;-25
2024/03/22 03:49:22;;;;;;;;;;;21.40;41.40;;;;;;3028287;19;4725;-26
2024/03/22 03:50:22;;;;;;;;;;;21.40;41.20;;;;;;3048801;19;4733;-24
2024/03/22 03:51:23;;;;;;;;;;;21.50;41.20;;;;;;3049895;19;4812;-29
2024/03/22 03:52:24;;;;;;;;;;;21.60;41.00;;;;;;3028991;19;4520;-24
2024/03/22 03:53:25;;;;;;;;;;;21.60;41.00;;;;;;3048757;19;4972;-25
2024/03/22 03:54:25;;;;;;;;;;;21.60;40.90;;;;;;3049730;19;4708;-24
2024/03/22 03:55:26;;;;;;;;;;;21.60;40.80;;;;;;3027068;19;4735;-25
2024/03/22 03:56:27;;;;;;;;;;;21.50;40.60;;;;;;3050184;19;4756;-25
2024/03/22 03:57:27;;;;;;;;;;;21.70;40.70;;;;;;3027647;19;4694;-25
2024/03/22 03:58:28;;;;;;;;;;;21.70;40.70;;;;;;3049918;19;4673;-24
2024/03/22 03:59:29;;;;;;;;;;;21.70;40.70;;;;;;3049308;19;4679;-24
2024/03/22 04:00:29;;;;;;;;;;;21.70;40.60;;;;;;3027712;19;4699;-26
2024/03/22 04:01:30;;;;;;;;;;;21.70;40.70;;;;;;3048789;19;4743;-27
2024/03/22 04:02:30;;;;;;;;;;;21.70;40.60;;;;;;3038026;19;4736;-24
2024/03/22 04:03:31;;;;;;;;;;;21.70;40.60;;;;;;3048874;19;5309;-25
2024/03/22 04:04:32;;;;;;;;;;;21.70;40.60;;;;;;3050170;19;4782;-26
2024/03/22 04:05:33;;;;;;;;;;;21.80;40.60;;;;;;3028477;19;4796;-23
2024/03/22 04:06:34;;;;;;;;;;;21.80;40.50;;;;;;3049503;19;4890;-26
2024/03/22 04:07:34;;;;;;;;;;;21.80;40.50;;;;;;3049001;19;4759;-25
2024/03/22 04:08:35;;;;;;;;;;;21.80;40.40;;;;;;3024717;19;4621;-26
2024/03/22 04:09:36;;;;;;;;;;;21.80;40.30;;;;;;3046910;19;4712;-28
2024/03/22 04:10:36;;;;;;;;;;;21.80;40.40;;;;;;3027706;19;4719;-23
2024/03/22 04:11:37;;;;;;;;;;;21.80;40.40;;;;;;3050449;19;4711;-26
2024/03/22 04:12:38;;;;;;;;;;;21.80;40.30;;;;;;3050100;19;4682;-27
2024/03/22 04:13:39;;;;;;;;;;;21.80;40.30;;;;;;3027184;19;4722;-24
2024/03/22 04:14:39;;;;;;;;;;;21.80;40.30;;;;;;3049528;19;4656;-26
2024/03/22 04:15:40;;;;;;;;;;;21.80;40.30;;;;;;3048293;19;4851;-27
2024/03/22 04:16:40;;;;;;;;;;;21.80;40.20;;;;;;3027421;19;4703;-25
2024/03/22 04:17:41;;;;;;;;;;;21.80;40.20;;;;;;3047573;19;5177;-25
2024/03/22 04:18:42;;;;;;;;;;;21.90;40.20;;;;;;3028420;19;4713;-27
2024/03/22 04:19:42;;;;;;;;;;;22.00;40.20;;;;;;3048783;19;4717;-24
2024/03/22 04:20:52;;;;;;;;;;;22.00;40.10;;;;;;3049016;19;4629;-25
2024/03/22 04:21:53;;;;;;;;;;;22.00;40.00;;;;;;3025586;19;4706;-26
2024/03/22 04:22:53;;;;;;;;;;;22.00;40.00;;;;;;3049439;19;4705;-33
2024/03/22 04:23:54;;;;;;;;;;;22.00;40.00;;;;;;3027929;19;4658;-33
2024/03/22 04:24:55;;;;;;;;;;;22.00;39.90;;;;;;3048287;19;4711;-31
2024/03/22 04:25:58;;;;;;;;;;;22.00;39.90;;;;;;3049128;19;4706;-32
2024/03/22 04:26:59;;;;;;;;;;;22.00;39.90;;;;;;3027228;19;4634;-33
2024/03/22 04:28:00;;;;;;;;;;;22.00;39.90;;;;;;3049279;19;4632;-32
2024/03/22 04:29:01;;;;;;;;;;;22.00;39.80;;;;;;3050232;19;4617;-32
2024/03/22 04:30:01;;;;;;;;;;;22.00;39.90;;;;;;3026345;19;4752;-31
2024/03/22 04:31:07;;;;;;;;;;;22.00;39.90;;;;;;3049638;19;4823;-35
2024/03/22 04:32:08;;;;;;;;;;;22.00;39.90;;;;;;3025957;19;4669;-31
2024/03/22 04:33:09;;;;;;;;;;;22.00;40.00;;;;;;3048871;19;4731;-33
2024/03/22 04:34:10;;;;;;;;;;;22.00;40.00;;;;;;3049464;19;4672;-33
2024/03/22 04:35:11;;;;;;;;;;;22.00;40.00;;;;;;3026778;19;4810;-33
2024/03/22 04:36:11;;;;;;;;;;;22.00;39.90;;;;;;3048318;19;4706;-31
2024/03/22 04:37:12;;;;;;;;;;;21.90;39.80;;;;;;3026517;19;4759;-32
2024/03/22 04:38:12;;;;;;;;;;;21.90;39.90;;;;;;3048754;19;1217;-32
2024/03/22 04:39:13;;;;;;;;;;;22.00;39.90;;;;;;3047605;19;4961;-30
2024/03/22 04:40:14;;;;;;;;;;;22.00;39.80;;;;;;3028220;19;4571;-32
2024/03/22 04:41:15;;;;;;;;;;;22.00;39.80;;;;;;3048071;19;4708;-32
2024/03/22 04:42:16;;;;;;;;;;;22.00;39.80;;;;;;3047243;19;4772;-35
2024/03/22 04:43:16;;;;;;;;;;;22.00;39.80;;;;;;3025113;19;4724;-31
2024/03/22 04:44:17;;;;;;;;;;;22.00;39.90;;;;;;3047577;19;4892;-33
2024/03/22 04:45:18;;;;;;;;;;;22.00;39.90;;;;;;3026564;19;4749;-30
2024/03/22 04:46:18;;;;;;;;;;;22.00;39.90;;;;;;3048555;19;4780;-34
2024/03/22 04:47:20;;;;;;;;;;;22.00;39.90;;;;;;3048695;19;5319;-34
2024/03/22 04:48:21;;;;;;;;;;;22.00;39.80;;;;;;3027363;19;4634;-30
2024/03/22 04:49:22;;;;;;;;;;;22.00;39.80;;;;;;3048909;19;5297;-32
2024/03/22 04:50:22;;;;;;;;;;;22.00;39.80;;;;;;3048022;19;4662;-32
2024/03/22 04:51:23;;;;;;;;;;;22.10;39.80;;;;;;3026653;19;4648;-31
2024/03/22 04:52:24;;;;;;;;;;;22.10;39.70;;;;;;3049095;19;4720;-33
2024/03/22 04:53:24;;;;;;;;;;;22.10;39.70;;;;;;3025672;19;4791;-34
2024/03/22 04:54:25;;;;;;;;;;;22.10;39.50;;;;;;3047749;19;4683;-30
2024/03/22 04:55:25;;;;;;;;;;;22.20;39.50;;;;;;3049142;19;4686;-34
2024/03/22 04:56:26;;;;;;;;;;;22.20;39.50;;;;;;3027378;19;4666;-34
2024/03/22 04:57:27;;;;;;;;;;;22.20;39.50;;;;;;3048040;19;4818;-30
2024/03/22 04:58:27;;;;;;;;;;;22.20;39.40;;;;;;3049633;19;4661;-33
2024/03/22 04:59:28;;;;;;;;;;;22.20;39.40;;;;;;3025706;19;4568;-32
2024/03/22 05:00:29;;;;;;;;;;;22.20;39.40;;;;;;3047618;19;4714;-33
2024/03/22 05:01:29;;;;;;;;;;;22.20;39.40;;;;;;3026595;19;4672;-34
2024/03/22 05:02:30;;;;;;;;;;;22.20;39.50;;;;;;3048879;19;4684;-32
2024/03/22 05:03:31;;;;;;;;;;;22.20;39.40;;;;;;3048713;19;4684;-30
2024/03/22 05:04:31;;;;;;;;;;;22.10;39.40;;;;;;3027832;19;4604;-34
2024/03/22 05:05:33;;;;;;;;;;;22.10;39.50;;;;;;3048341;19;4677;-35
2024/03/22 05:06:33;;;;;;;;;;;22.10;39.50;;;;;;3027887;19;4675;-30
2024/03/22 05:07:34;;;;;;;;;;;22.10;39.50;;;;;;3048934;19;4688;-35
2024/03/22 05:08:34;;;;;;;;;;;22.10;39.50;;;;;;3049143;19;4709;-34
2024/03/22 05:09:35;;;;;;;;;;;22.10;39.70;;;;;;3026734;19;4649;-30
2024/03/22 05:10:36;;;;;;;;;;;22.10;39.70;;;;;;3049057;19;4706;-33
2024/03/22 05:11:36;;;;;;;;;;;22.00;39.60;;;;;;3048719;19;4680;-32
2024/03/22 05:12:37;;;;;;;;;;;22.00;39.60;;;;;;3026868;19;4496;-32
2024/03/22 05:13:39;;;;;;;;;;;22.00;39.60;;;;;;3048666;19;4739;-32
2024/03/22 05:14:40;;;;;;;;;;;22.00;39.70;;;;;;3028075;19;4679;-30
2024/03/22 05:15:41;;;;;;;;;;;22.00;39.70;;;;;;3047959;19;4679;-30
2024/03/22 05:16:41;;;;;;;;;;;22.00;39.70;;;;;;3048859;19;4698;-34
2024/03/22 05:17:43;;;;;;;;;;;22.00;39.70;;;;;;3026200;19;4640;-34
2024/03/22 05:18:43;;;;;;;;;;;22.00;39.70;;;;;;3048034;19;4834;-32
2024/03/22 05:19:44;;;;;;;;;;;22.00;39.80;;;;;;3047108;19;4729;-31
2024/03/22 05:20:45;;;;;;;;;;;22.00;39.90;;;;;;3027658;19;4672;-32
2024/03/22 05:21:45;;;;;;;;;;;21.90;39.80;;;;;;3051147;19;4701;-32
2024/03/22 05:22:47;;;;;;;;;;;21.90;39.80;;;;;;3030673;19;4680;-31
2024/03/22 05:23:47;;;;;;;;;;;21.90;39.80;;;;;;3051269;19;4680;-33
2024/03/22 05:24:48;;;;;;;;;;;21.90;39.80;;;;;;3051033;19;4687;-32
2024/03/22 05:25:49;;;;;;;;;;;21.90;39.90;;;;;;3030564;19;4703;-31
2024/03/22 05:26:49;;;;;;;;;;;21.80;39.90;;;;;;3052496;19;4683;-33
2024/03/22 05:27:50;;;;;;;;;;;21.80;39.90;;;;;;3045877;19;4688;-32
2024/03/22 05:28:50;;;;;;;;;;;21.80;39.90;;;;;;3043518;19;4737;-33
2024/03/22 05:29:51;;;;;;;;;;;21.80;40.00;;;;;;3050697;19;4777;-35
2024/03/22 05:30:52;;;;;;;;;;;21.80;40.00;;;;;;3030046;19;4725;-30
2024/03/22 05:31:52;;;;;;;;;;;21.80;40.10;;;;;;3051637;19;5043;-31
2024/03/22 05:32:53;;;;;;;;;;;21.80;40.10;;;;;;3052275;19;4721;-23
2024/03/22 05:33:54;;;;;;;;;;;21.80;40.20;;;;;;3029512;19;4861;-24
2024/03/22 05:34:55;;;;;;;;;;;21.80;40.30;;;;;;3051462;19;4851;-25
2024/03/22 05:35:55;;;;;;;;;;;21.80;40.30;;;;;;3031094;19;4676;-25
2024/03/22 05:36:56;;;;;;;;;;;21.80;40.20;;;;;;3050731;19;4802;-26
2024/03/22 05:37:57;;;;;;;;;;;21.80;40.20;;;;;;3051796;19;4721;-26
2024/03/22 05:38:57;;;;;;;;;;;21.90;40.20;;;;;;3030377;19;4683;-27
2024/03/22 05:39:58;;;;;;;;;;;22.00;40.20;;;;;;3050396;19;4713;-24
2024/03/22 05:41:03;;;;;;;;;;;22.00;40.10;;;;;;3051637;19;5218;-24
2024/03/22 05:42:04;;;;;;;;;;;22.00;40.00;;;;;;3028659;19;4723;-25
2024/03/22 05:43:05;;;;;;;;;;;22.00;40.00;;;;;;3051207;19;4714;-24
2024/03/22 05:44:05;;;;;;;;;;;22.00;40.00;;;;;;3030563;19;4670;-23
2024/03/22 05:45:06;;;;;;;;;;;22.10;40.10;;;;;;3051739;19;4604;-25
2024/03/22 05:46:07;;;;;;;;;;;22.10;40.00;;;;;;3050110;19;4636;-31
2024/03/22 05:47:07;;;;;;;;;;;22.00;40.00;;;;;;3029839;19;4626;-25
2024/03/22 05:48:08;;;;;;;;;;;22.10;40.00;;;;;;3050582;19;4733;-26
2024/03/22 05:49:09;;;;;;;;;;;22.10;40.00;;;;;;3051648;19;4684;-26
2024/03/22 05:50:09;;;;;;;;;;;22.00;39.80;;;;;;3027956;19;21654;-25
2024/03/22 05:51:10;;;;;;;;;;;22.00;39.80;;;;;;3050407;19;4697;-24
2024/03/22 05:52:12;;;;;;;;;;;22.10;39.90;;;;;;3029343;19;4662;-26
2024/03/22 05:53:12;;;;;;;;;;;22.10;39.90;;;;;;3050981;19;4822;-34
2024/03/22 05:54:13;;;;;;;;;;;22.10;39.90;;;;;;3051480;19;4821;-33
2024/03/22 05:55:13;;;;;;;;;;;22.10;39.90;;;;;;3029615;19;4652;-30
2024/03/22 05:56:16;;;;;;;;;;;22.10;39.90;;;;;;3050591;19;4747;-30
2024/03/22 05:57:16;;;;;;;;;;;22.10;39.90;;;;;;3029532;19;4813;-32
2024/03/22 05:58:17;;;;;;;;;;;22.10;39.90;;;;;;3050183;19;4736;-33
2024/03/22 05:59:18;;;;;;;;;;;22.00;39.90;;;;;;3050112;19;4706;-34